Time;durP1;ratioP1;P1;durP2;ratioP2;P2;SDS_P1;SDS_P2;PMS_P1;PMS_P2;Temp;Humidity;BMP_temperature;BMP_pressure;BME280_temperature;BME280_humidity;BME280_pressure;Samples;Min_cycle;Max_cycle;Signal;HPM_P1;HPM_P2
2022/04/18 00:01:56;;;;;;;12.95;4.57;;;;;;;;;;4957111;29;20099;-64
2022/04/18 00:04:22;;;;;;;12.57;5.10;;;;;;;;;;4939823;29;20023;-64
2022/04/18 00:06:49;;;;;;;12.10;5.15;;;;;;;;;;4957288;29;20031;-63
2022/04/18 00:09:15;;;;;;;10.88;4.57;;;;;;;;;;4956998;29;20115;-63
2022/04/18 00:11:41;;;;;;;8.60;4.30;;;;;;;;;;4957292;28;20038;-63
2022/04/18 00:14:09;;;;;;;8.95;3.90;;;;;;;;;;4939352;29;20118;-63
2022/04/18 00:16:35;;;;;;;10.85;4.75;;;;;;;;;;4956850;29;20038;-63
2022/04/18 00:19:01;;;;;;;9.23;3.78;;;;;;;;;;4956627;29;20034;-63
2022/04/18 00:21:27;;;;;;;13.75;5.40;;;;;;;;;;4956691;29;20031;-63
2022/04/18 00:23:54;;;;;;;13.40;5.00;;;;;;;;;;4939521;29;20027;-64
2022/04/18 00:26:20;;;;;;;14.20;5.00;;;;;;;;;;4939170;29;20122;-64
2022/04/18 00:28:46;;;;;;;16.05;5.50;;;;;;;;;;4939465;29;20031;-64
2022/04/18 00:31:12;;;;;;;15.45;5.05;;;;;;;;;;4938848;29;20142;-63
2022/04/18 00:33:39;;;;;;;13.55;4.35;;;;;;;;;;4956542;29;20098;-64
2022/04/18 00:36:05;;;;;;;13.73;6.20;;;;;;;;;;4956469;29;20043;-66
2022/04/18 00:38:31;;;;;;;11.75;6.22;;;;;;;;;;4956290;29;20038;-63
2022/04/18 00:40:57;;;;;;;12.00;5.20;;;;;;;;;;4956446;29;20031;-63
2022/04/18 00:43:40;;;;;;;11.00;5.18;;;;;;;;;;4939127;29;20047;-65
2022/04/18 00:46:07;;;;;;;9.50;4.72;;;;;;;;;;4939059;29;20027;-66
2022/04/18 00:48:33;;;;;;;10.07;4.82;;;;;;;;;;4956108;29;20495;-65
2022/04/18 00:50:59;;;;;;;17.13;6.97;;;;;;;;;;4956263;29;20038;-66
2022/04/18 00:53:26;;;;;;;11.30;4.90;;;;;;;;;;4956196;29;20044;-67
2022/04/18 00:55:53;;;;;;;11.73;4.95;;;;;;;;;;4956171;29;20028;-65
2022/04/18 00:58:19;;;;;;;9.10;4.45;;;;;;;;;;4956142;29;20499;-63
2022/04/18 01:00:45;;;;;;;10.40;4.68;;;;;;;;;;4956057;29;20031;-66
2022/04/18 01:03:11;;;;;;;11.20;5.18;;;;;;;;;;4938744;29;20458;-64
2022/04/18 01:05:38;;;;;;;10.38;4.38;;;;;;;;;;4956221;29;20023;-64
2022/04/18 01:08:05;;;;;;;10.02;4.43;;;;;;;;;;4954733;29;20033;-66
2022/04/18 01:10:31;;;;;;;7.10;4.35;;;;;;;;;;4954873;29;20023;-66
2022/04/18 01:12:58;;;;;;;12.50;4.68;;;;;;;;;;4937630;29;20040;-66
2022/04/18 01:15:24;;;;;;;8.05;4.32;;;;;;;;;;4954841;29;20023;-64
2022/04/18 01:17:50;;;;;;;11.10;5.18;;;;;;;;;;4955479;29;20034;-64
2022/04/18 01:20:16;;;;;;;11.80;5.38;;;;;;;;;;4955394;29;20074;-64
2022/04/18 01:22:44;;;;;;;7.85;4.00;;;;;;;;;;4954139;29;20102;-65
2022/04/18 01:30:40;;;;;;;7.05;3.70;;;;;;;;;;4953648;29;20050;-64
2022/04/18 01:33:06;;;;;;;6.05;3.35;;;;;;;;;;4953993;29;20031;-65
2022/04/18 01:35:33;;;;;;;6.95;3.17;;;;;;;;;;4953925;29;20046;-65
2022/04/18 01:37:59;;;;;;;6.88;2.97;;;;;;;;;;4953963;29;20019;-66
2022/04/18 01:40:25;;;;;;;7.65;3.08;;;;;;;;;;4937398;29;20035;-63
2022/04/18 01:42:51;;;;;;;6.65;2.63;;;;;;;;;;4936905;29;20033;-65
2022/04/18 01:45:17;;;;;;;4.32;2.53;;;;;;;;;;4955286;29;20069;-66
2022/04/18 01:47:43;;;;;;;6.00;2.78;;;;;;;;;;4955291;29;20027;-64
2022/04/18 01:50:10;;;;;;;5.40;2.80;;;;;;;;;;4938084;29;20092;-64
2022/04/18 01:52:36;;;;;;;7.20;3.17;;;;;;;;;;4937939;29;20122;-65
2022/04/18 01:55:02;;;;;;;6.03;3.30;;;;;;;;;;4955224;29;20111;-65
2022/04/18 01:57:28;;;;;;;6.15;2.83;;;;;;;;;;4955114;29;20154;-64
2022/04/18 01:59:54;;;;;;;3.58;3.03;;;;;;;;;;4955246;29;20063;-65
2022/04/18 02:02:20;;;;;;;4.65;3.25;;;;;;;;;;4954970;29;20045;-66
2022/04/18 02:04:46;;;;;;;18.60;6.63;;;;;;;;;;4937749;29;20027;-66
2022/04/18 02:07:14;;;;;;;21.77;8.88;;;;;;;;;;4955071;28;20023;-65
2022/04/18 02:09:40;;;;;;;20.75;9.25;;;;;;;;;;4955050;29;20031;-65
2022/04/18 02:12:07;;;;;;;14.40;6.85;;;;;;;;;;4937734;29;20074;-65
2022/04/18 02:14:34;;;;;;;14.02;7.20;;;;;;;;;;4937664;29;20031;-64
2022/04/18 02:17:00;;;;;;;17.35;6.70;;;;;;;;;;4954525;29;20475;-66
2022/04/18 02:19:26;;;;;;;15.82;6.13;;;;;;;;;;4954639;29;20468;-66
2022/04/18 02:21:53;;;;;;;14.43;6.75;;;;;;;;;;4954845;29;20612;-66
2022/04/18 02:24:19;;;;;;;12.10;6.07;;;;;;;;;;4937615;29;20598;-65
2022/04/18 02:26:45;;;;;;;16.00;5.55;;;;;;;;;;4954734;29;20110;-68
2022/04/18 02:29:11;;;;;;;14.63;5.25;;;;;;;;;;4954933;29;20131;-65
2022/04/18 02:34:27;;;;;;;15.20;4.95;;;;;;;;;;4954657;29;20510;-66
2022/04/18 02:36:53;;;;;;;12.07;5.47;;;;;;;;;;4957566;28;20023;-65
2022/04/18 02:39:19;;;;;;;17.00;5.63;;;;;;;;;;4958723;29;20082;-66
2022/04/18 02:41:45;;;;;;;13.82;5.57;;;;;;;;;;4941226;29;20027;-66
2022/04/18 02:44:12;;;;;;;14.00;4.78;;;;;;;;;;4941289;29;20443;-67
2022/04/18 02:46:38;;;;;;;8.10;4.30;;;;;;;;;;4958773;29;20062;-68
2022/04/18 02:49:04;;;;;;;8.90;4.63;;;;;;;;;;4941332;29;20023;-64
2022/04/18 02:51:30;;;;;;;14.13;6.38;;;;;;;;;;4958412;29;20023;-65
2022/04/18 02:53:58;;;;;;;16.45;5.90;;;;;;;;;;4958394;29;20110;-65
2022/04/18 02:56:25;;;;;;;9.75;4.75;;;;;;;;;;4958313;29;20106;-65
2022/04/18 02:58:51;;;;;;;23.02;5.63;;;;;;;;;;4941112;29;20157;-64
2022/04/18 03:01:17;;;;;;;13.80;5.65;;;;;;;;;;4958255;29;20390;-65
2022/04/18 03:03:43;;;;;;;12.25;5.70;;;;;;;;;;4958218;28;20086;-65
2022/04/18 03:06:10;;;;;;;12.35;5.43;;;;;;;;;;4958157;29;20032;-65
2022/04/18 03:08:37;;;;;;;9.60;5.47;;;;;;;;;;4958047;28;20019;-65
2022/04/18 03:11:03;;;;;;;11.10;5.28;;;;;;;;;;4940881;29;20379;-66
2022/04/18 03:13:32;;;;;;;10.30;4.60;;;;;;;;;;4940714;29;20559;-66
2022/04/18 03:15:59;;;;;;;11.88;4.95;;;;;;;;;;4957956;28;20078;-66
2022/04/18 03:18:26;;;;;;;13.95;4.60;;;;;;;;;;4957651;28;20436;-65
2022/04/18 03:20:52;;;;;;;12.85;4.93;;;;;;;;;;4958018;29;20023;-66
2022/04/18 03:23:18;;;;;;;17.23;4.20;;;;;;;;;;4940567;29;20110;-66
2022/04/18 03:25:44;;;;;;;15.75;4.70;;;;;;;;;;4957803;29;20032;-66
2022/04/18 03:28:11;;;;;;;14.13;5.47;;;;;;;;;;4940444;29;20398;-66
2022/04/18 03:30:37;;;;;;;8.23;3.97;;;;;;;;;;4940257;29;20051;-66
2022/04/18 03:33:04;;;;;;;11.23;4.43;;;;;;;;;;4957660;29;20023;-66
2022/04/18 03:35:30;;;;;;;6.45;3.88;;;;;;;;;;4957618;29;20051;-66
2022/04/18 03:40:44;;;;;;;8.85;5.90;;;;;;;;;;4957369;29;20038;-66
2022/04/18 03:43:10;;;;;;;16.40;7.55;;;;;;;;;;4957236;29;20432;-65
2022/04/18 03:45:36;;;;;;;13.27;6.32;;;;;;;;;;4940187;29;20019;-66
2022/04/18 03:48:02;;;;;;;16.73;6.88;;;;;;;;;;4956728;28;20054;-66
2022/04/18 03:50:29;;;;;;;8.07;4.00;;;;;;;;;;4957405;29;20036;-67
2022/04/18 03:52:55;;;;;;;7.85;4.72;;;;;;;;;;4957185;29;20035;-67
2022/04/18 03:55:21;;;;;;;9.90;5.38;;;;;;;;;;4957265;29;20032;-67
2022/04/18 03:57:47;;;;;;;9.35;4.97;;;;;;;;;;4957249;29;20030;-67
2022/04/18 04:00:15;;;;;;;9.27;4.72;;;;;;;;;;4939976;29;20110;-66
2022/04/18 04:02:43;;;;;;;10.88;4.65;;;;;;;;;;4939680;29;20054;-66
2022/04/18 04:05:09;;;;;;;10.77;4.15;;;;;;;;;;4939753;29;20365;-66
2022/04/18 04:07:35;;;;;;;8.52;4.07;;;;;;;;;;4957293;29;20114;-67
2022/04/18 04:10:02;;;;;;;8.73;4.30;;;;;;;;;;4957057;29;20034;-67
2022/04/18 04:12:28;;;;;;;14.95;4.93;;;;;;;;;;4956923;29;20035;-67
2022/04/18 04:14:54;;;;;;;10.48;4.78;;;;;;;;;;4956851;29;20031;-68
2022/04/18 04:17:24;;;;;;;12.32;4.95;;;;;;;;;;4939570;29;20383;-68
2022/04/18 04:19:50;;;;;;;8.18;5.03;;;;;;;;;;4956952;29;20031;-67
2022/04/18 04:22:19;;;;;;;11.50;6.33;;;;;;;;;;4956854;29;20039;-67
2022/04/18 04:24:45;;;;;;;9.85;5.32;;;;;;;;;;4957068;29;20039;-68
2022/04/18 04:27:11;;;;;;;10.73;5.30;;;;;;;;;;4956948;29;20085;-68
2022/04/18 04:29:37;;;;;;;10.50;5.40;;;;;;;;;;4956762;29;20035;-67
2022/04/18 04:32:04;;;;;;;12.82;7.22;;;;;;;;;;4956528;29;20058;-68
2022/04/18 04:34:30;;;;;;;23.83;9.18;;;;;;;;;;4939295;29;20027;-68
2022/04/18 04:36:56;;;;;;;22.75;10.23;;;;;;;;;;4956571;29;20032;-69
2022/04/18 04:39:22;;;;;;;22.00;10.80;;;;;;;;;;4939033;29;20031;-68
2022/04/18 04:41:48;;;;;;;17.92;10.15;;;;;;;;;;4939153;29;20122;-67
2022/04/18 04:44:15;;;;;;;13.85;8.18;;;;;;;;;;4956414;29;20031;-66
2022/04/18 04:46:41;;;;;;;14.80;5.57;;;;;;;;;;4956347;29;20031;-67
2022/04/18 04:49:09;;;;;;;10.23;5.47;;;;;;;;;;4956169;29;20042;-67
2022/04/18 04:51:35;;;;;;;10.18;5.70;;;;;;;;;;4956217;29;20035;-66
2022/04/18 04:54:02;;;;;;;10.95;4.93;;;;;;;;;;4955891;29;20542;-66
2022/04/18 04:56:28;;;;;;;11.63;5.15;;;;;;;;;;4938840;29;20042;-66
2022/04/18 04:58:54;;;;;;;11.45;4.95;;;;;;;;;;4955365;28;20058;-67
2022/04/18 05:01:21;;;;;;;9.23;5.25;;;;;;;;;;4955794;29;20038;-67
2022/04/18 05:03:47;;;;;;;14.40;5.25;;;;;;;;;;4955951;29;20039;-66
2022/04/18 05:06:14;;;;;;;8.23;4.90;;;;;;;;;;4955906;28;20038;-66
2022/04/18 05:08:41;;;;;;;11.65;5.07;;;;;;;;;;4955807;29;20026;-67
2022/04/18 05:11:07;;;;;;;15.73;5.10;;;;;;;;;;4955915;29;20020;-67
2022/04/18 05:13:34;;;;;;;13.05;5.05;;;;;;;;;;4938437;29;20039;-67
2022/04/18 05:16:00;;;;;;;10.57;5.57;;;;;;;;;;4955774;29;20042;-67
2022/04/18 05:18:27;;;;;;;8.00;4.45;;;;;;;;;;4955758;29;20038;-64
2022/04/18 05:20:53;;;;;;;9.85;5.40;;;;;;;;;;4938544;29;20180;-64
2022/04/18 05:23:20;;;;;;;9.32;4.63;;;;;;;;;;4937113;28;20393;-65
2022/04/18 05:25:46;;;;;;;9.02;5.15;;;;;;;;;;4971672;28;20031;-65
2022/04/18 05:28:13;;;;;;;6.88;4.85;;;;;;;;;;4957337;28;20391;-65
2022/04/18 05:30:39;;;;;;;7.80;4.68;;;;;;;;;;4974546;28;20042;-66
2022/04/18 05:33:06;;;;;;;9.20;5.53;;;;;;;;;;4957303;28;20073;-66
2022/04/18 05:35:33;;;;;;;13.82;5.43;;;;;;;;;;4974596;28;20023;-64
2022/04/18 05:37:59;;;;;;;8.35;5.18;;;;;;;;;;4957249;28;20113;-64
2022/04/18 05:40:25;;;;;;;7.68;5.25;;;;;;;;;;4974778;28;20113;-64
2022/04/18 05:42:52;;;;;;;12.32;6.13;;;;;;;;;;4974178;28;20035;-66
2022/04/18 05:45:18;;;;;;;11.27;5.65;;;;;;;;;;4974051;28;20027;-65
2022/04/18 05:47:44;;;;;;;10.00;5.57;;;;;;;;;;4957112;28;20571;-66
2022/04/18 05:50:10;;;;;;;12.93;6.30;;;;;;;;;;4974524;28;20035;-65
2022/04/18 05:52:36;;;;;;;9.75;5.40;;;;;;;;;;4974068;28;20034;-66
2022/04/18 05:55:03;;;;;;;8.23;5.22;;;;;;;;;;4974213;28;20114;-67
2022/04/18 05:57:29;;;;;;;12.43;5.13;;;;;;;;;;4974410;28;20031;-65
2022/04/18 05:59:55;;;;;;;9.35;4.85;;;;;;;;;;4974549;28;20035;-64
2022/04/18 06:02:22;;;;;;;10.73;6.13;;;;;;;;;;4974671;28;20042;-64
2022/04/18 06:04:48;;;;;;;10.93;6.03;;;;;;;;;;4956982;28;20471;-64
2022/04/18 06:07:14;;;;;;;12.13;5.03;;;;;;;;;;4974036;28;20519;-66
2022/04/18 06:09:40;;;;;;;9.95;4.68;;;;;;;;;;4973976;28;20082;-65
2022/04/18 06:12:07;;;;;;;9.48;5.40;;;;;;;;;;4956475;28;20035;-65
2022/04/18 06:14:33;;;;;;;9.50;4.90;;;;;;;;;;4974275;28;20023;-66
2022/04/18 06:16:59;;;;;;;8.68;4.40;;;;;;;;;;4956894;28;20023;-66
2022/04/18 06:19:25;;;;;;;11.82;5.00;;;;;;;;;;4974148;28;20497;-66
2022/04/18 06:21:52;;;;;;;7.55;4.20;;;;;;;;;;4974200;28;20034;-65
2022/04/18 06:24:19;;;;;;;7.05;4.60;;;;;;;;;;4974159;28;20133;-64
2022/04/18 06:26:45;;;;;;;9.55;3.97;;;;;;;;;;4974195;28;20058;-64
2022/04/18 06:29:12;;;;;;;12.32;4.55;;;;;;;;;;4974152;28;20033;-65
2022/04/18 06:31:39;;;;;;;13.43;4.70;;;;;;;;;;4973823;28;20077;-65
2022/04/18 06:34:05;;;;;;;6.90;4.18;;;;;;;;;;4973960;28;20046;-64
2022/04/18 06:36:31;;;;;;;6.75;4.10;;;;;;;;;;4956683;28;20506;-64
2022/04/18 06:38:57;;;;;;;7.65;3.78;;;;;;;;;;4973721;28;20392;-65
2022/04/18 06:41:23;;;;;;;4.97;4.00;;;;;;;;;;4956685;28;20030;-64
2022/04/18 06:43:49;;;;;;;6.80;5.05;;;;;;;;;;4973973;28;20034;-64
2022/04/18 06:46:16;;;;;;;8.70;4.90;;;;;;;;;;4973672;28;20042;-65
2022/04/18 06:48:42;;;;;;;5.45;4.07;;;;;;;;;;4966801;28;20107;-64
2022/04/18 06:51:08;;;;;;;6.65;4.05;;;;;;;;;;4954201;29;20031;-64
2022/04/18 06:53:34;;;;;;;6.05;4.22;;;;;;;;;;4937085;29;20066;-64
2022/04/18 06:58:45;;;;;;;7.80;4.25;;;;;;;;;;4953868;29;20387;-64
2022/04/18 07:01:11;;;;;;;6.13;3.92;;;;;;;;;;4954874;29;20460;-63
2022/04/18 07:03:37;;;;;;;10.57;5.68;;;;;;;;;;4954467;29;20037;-63
2022/04/18 07:06:03;;;;;;;8.25;4.10;;;;;;;;;;4953212;29;20027;-62
2022/04/18 07:08:30;;;;;;;8.63;4.38;;;;;;;;;;4954383;29;20030;-62
2022/04/18 07:10:56;;;;;;;12.13;3.88;;;;;;;;;;4954528;29;20110;-62
2022/04/18 07:13:22;;;;;;;6.00;3.58;;;;;;;;;;4936984;29;20035;-62
2022/04/18 07:15:48;;;;;;;6.03;3.72;;;;;;;;;;4954661;29;20034;-63
2022/04/18 07:18:14;;;;;;;5.70;3.53;;;;;;;;;;4954700;29;20035;-62
2022/04/18 07:20:41;;;;;;;6.07;4.25;;;;;;;;;;4954304;28;20035;-62
2022/04/18 07:23:08;;;;;;;8.30;3.83;;;;;;;;;;4955723;28;20042;-62
2022/04/18 07:25:34;;;;;;;5.28;3.88;;;;;;;;;;4957810;29;20427;-62
2022/04/18 07:28:00;;;;;;;9.32;3.60;;;;;;;;;;4958066;28;20028;-63
2022/04/18 07:30:30;;;;;;;8.68;4.03;;;;;;;;;;4957792;29;20031;-63
2022/04/18 07:32:57;;;;;;;8.30;3.47;;;;;;;;;;4957624;29;20031;-63
2022/04/18 07:35:23;;;;;;;7.63;4.55;;;;;;;;;;4957510;28;20062;-64
2022/04/18 07:40:34;;;;;;;9.05;3.85;;;;;;;;;;4957551;29;20050;-63
2022/04/18 07:43:00;;;;;;;4.75;3.70;;;;;;;;;;4940274;29;20061;-63
2022/04/18 07:45:26;;;;;;;6.60;4.47;;;;;;;;;;4940097;29;20095;-62
2022/04/18 07:47:52;;;;;;;5.55;4.47;;;;;;;;;;4957260;29;20110;-62
2022/04/18 07:50:18;;;;;;;5.07;3.35;;;;;;;;;;4957284;29;20030;-64
2022/04/18 07:52:45;;;;;;;9.10;5.05;;;;;;;;;;4957471;29;20563;-62
2022/04/18 07:55:11;;;;;;;9.85;5.00;;;;;;;;;;4956948;28;20460;-63
2022/04/18 07:57:38;;;;;;;5.90;4.10;;;;;;;;;;4957262;29;20027;-62
2022/04/18 08:00:07;;;;;;;6.13;3.67;;;;;;;;;;4957377;29;20035;-62
2022/04/18 08:02:34;;;;;;;8.80;4.22;;;;;;;;;;4957494;29;20353;-63
2022/04/18 08:05:00;;;;;;;8.65;4.32;;;;;;;;;;4957170;28;20491;-63
2022/04/18 08:07:26;;;;;;;5.20;3.88;;;;;;;;;;4956668;29;20042;-63
2022/04/18 08:09:53;;;;;;;5.70;3.85;;;;;;;;;;4956699;29;20452;-63
2022/04/18 08:12:19;;;;;;;5.13;3.95;;;;;;;;;;4956912;29;20039;-63
2022/04/18 08:14:45;;;;;;;7.10;3.92;;;;;;;;;;4956895;29;20027;-63
2022/04/18 08:17:11;;;;;;;6.50;3.80;;;;;;;;;;4939610;29;20031;-62
2022/04/18 08:19:39;;;;;;;5.10;3.78;;;;;;;;;;4956808;28;20019;-63
2022/04/18 08:22:05;;;;;;;6.30;3.72;;;;;;;;;;4956858;29;20027;-63
2022/04/18 08:24:31;;;;;;;6.53;4.38;;;;;;;;;;4956736;29;20027;-63
2022/04/18 08:26:57;;;;;;;8.85;4.40;;;;;;;;;;4956952;29;20117;-62
2022/04/18 08:29:24;;;;;;;8.60;4.30;;;;;;;;;;4956647;29;20114;-63
2022/04/18 08:31:50;;;;;;;7.35;4.40;;;;;;;;;;4956449;28;20047;-62
2022/04/18 08:34:17;;;;;;;5.82;4.38;;;;;;;;;;4939038;29;20031;-63
2022/04/18 08:36:43;;;;;;;6.38;4.22;;;;;;;;;;4969926;28;20118;-68
2022/04/18 08:39:11;;;;;;;5.22;4.30;;;;;;;;;;4975870;28;20511;-66
2022/04/18 08:41:46;;;;;;;9.40;5.13;;;;;;;;;;4975793;28;20023;-66
2022/04/18 08:44:13;;;;;;;5.55;4.35;;;;;;;;;;4958253;28;20038;-67
2022/04/18 08:46:39;;;;;;;6.68;4.85;;;;;;;;;;4974498;28;20031;-66
2022/04/18 08:54:36;;;;;;;7.57;4.97;;;;;;;;;;4975537;28;20443;-65
2022/04/18 08:57:02;;;;;;;6.68;4.60;;;13.40;72.00;;;;;;4958057;28;20015;-65
2022/04/18 08:59:28;;;;;;;8.73;5.10;;;13.30;71.20;;;;;;4975370;28;20386;-66
2022/04/18 09:01:53;;;;;;;12.35;4.82;;;13.50;73.00;;;;;;4975436;28;20407;-65
2022/04/18 09:04:22;;;;;;;7.05;5.47;;;13.50;71.40;;;;;;4975319;28;20538;-65
2022/04/18 09:06:49;;;;;;;6.47;4.55;;;13.70;70.50;;;;;;4957836;28;20427;-66
2022/04/18 09:09:14;;;;;;;6.50;4.80;;;13.80;69.70;;;;;;4975273;28;20027;-66
2022/04/18 09:11:41;;;;;;;6.65;4.10;;;;;;;;;;4973280;28;20030;-74
2022/04/18 09:14:10;;;;;;;7.70;4.68;;;;;;;;;;4963167;28;20055;-70
2022/04/18 09:16:39;;;;;;;6.90;3.95;;;13.90;69.10;;;;;;4957402;28;20041;-65
2022/04/18 09:19:09;;;;;;;5.00;3.80;;;;;;;;;;4974985;28;20105;-68
2022/04/18 09:21:40;;;;;;;3.30;2.88;;;14.90;67.60;;;;;;4957642;28;20110;-66
2022/04/18 09:24:06;;;;;;;3.03;2.60;;;;;;;;;;4973251;28;20039;-68
2022/04/18 09:26:32;;;;;;;2.50;2.30;;;;;;;;;;4974541;28;20456;-69
2022/04/18 09:29:05;;;;;;;3.58;2.28;;;14.50;62.50;;;;;;4950847;28;20494;-67
2022/04/18 09:31:39;;;;;;;4.53;2.78;;;;;;;;;;4974097;28;20055;-66
2022/04/18 09:34:06;;;;;;;8.68;3.85;;;;;;;;;;4974416;28;20038;-66
2022/04/18 09:36:32;;;;;;;5.97;2.50;;;16.20;58.00;;;;;;4957171;28;20058;-69
2022/04/18 09:38:57;;;;;;;8.45;2.92;;;17.50;58.40;;;;;;4957407;28;20070;-65
2022/04/18 09:41:29;;;;;;;7.53;3.95;;;17.30;58.30;;;;;;4957103;28;20084;-71
2022/04/18 09:43:55;;;;;;;6.63;3.20;;;16.70;57.50;;;;;;4974461;28;20041;-68
2022/04/18 09:46:23;;;;;;;16.67;7.05;;;16.30;58.70;;;;;;4973513;28;20027;-68
2022/04/18 09:48:50;;;;;;;8.50;4.05;;;15.90;57.10;;;;;;4973277;28;20019;-67
2022/04/18 09:51:27;;;;;;;6.65;3.25;;;15.40;56.60;;;;;;4972865;28;20031;-66
2022/04/18 09:53:55;;;;;;;8.15;3.15;;;15.20;57.60;;;;;;4955791;28;20431;-68
2022/04/18 09:56:22;;;;;;;8.93;3.75;;;14.60;55.50;;;;;;4955863;28;20088;-66
2022/04/18 09:58:48;;;;;;;10.40;5.82;;;14.20;56.00;;;;;;4973733;28;20030;-66
2022/04/18 10:01:16;;;;;;;10.45;6.18;;;13.90;56.00;;;;;;4974495;28;20113;-68
2022/04/18 10:03:43;;;;;;;6.28;3.13;;;14.00;56.20;;;;;;4974331;28;20041;-67
2022/04/18 10:06:10;;;;;;;17.75;6.82;;;14.40;57.20;;;;;;4974075;28;20049;-67
2022/04/18 10:08:37;;;;;;;8.93;6.35;;;14.70;58.30;;;;;;4956750;28;20550;-67
2022/04/18 10:11:06;;;;;;;3.90;3.05;;;15.00;56.30;;;;;;4974118;28;20050;-67
2022/04/18 10:13:34;;;;;;;5.22;2.67;;;15.30;58.20;;;;;;4974053;28;20041;-67
2022/04/18 10:16:01;;;;;;;4.20;3.22;;;15.40;55.60;;;;;;4956827;28;20034;-69
2022/04/18 10:18:28;;;;;;;6.05;2.63;;;15.10;53.60;;;;;;4974436;28;20042;-70
2022/04/18 10:21:11;;;;;;;4.07;2.78;;;15.20;53.60;;;;;;4974150;28;20023;-68
2022/04/18 10:24:16;;;;;;;3.33;2.53;;;15.70;53.60;;;;;;4974058;28;20037;-64
2022/04/18 10:27:16;;;;;;;3.28;1.80;;;16.10;54.00;;;;;;4956786;28;20037;-65
2022/04/18 10:29:48;;;;;;;2.05;1.90;;;16.90;54.40;;;;;;4948351;28;20031;-64
2022/04/18 10:32:20;;;;;;;3.53;2.00;;;17.60;53.00;;;;;;4968427;28;20495;-69
2022/04/18 10:34:50;;;;;;;8.40;3.05;;;17.70;50.90;;;;;;4974114;28;20038;-68
2022/04/18 10:37:16;;;;;;;12.25;3.63;;;17.70;50.30;;;;;;4974085;28;20082;-65
2022/04/18 10:39:42;;;;;;;4.10;2.55;;;17.70;51.90;;;;;;4973940;28;20051;-64
2022/04/18 10:42:33;;;;;;;3.60;2.20;;;17.00;50.60;;;;;;4973766;28;20110;-65
2022/04/18 10:45:14;;;;;;;4.18;2.50;;;16.20;50.20;;;;;;4968850;28;20105;-65
2022/04/18 10:48:04;;;;;;;7.45;2.60;;;15.80;52.00;;;;;;4973846;28;20034;-71
2022/04/18 10:50:39;;;;;;;6.30;2.83;;;15.80;54.10;;;;;;4956505;28;20066;-66
2022/04/18 10:53:13;;;;;;;6.38;3.25;;;15.60;53.90;;;;;;4973796;28;20094;-64
2022/04/18 10:56:02;;;;;;;3.58;2.47;;;15.40;52.30;;;;;;4956454;28;20022;-67
2022/04/18 10:58:31;;;;;;;3.67;2.10;;;15.40;54.80;;;;;;4977258;28;20031;-66
2022/04/18 11:01:02;;;;;;;2.88;2.17;;;15.30;54.40;;;;;;4977480;28;20423;-66
2022/04/18 11:03:43;;;;;;;3.33;2.17;;;15.10;51.60;;;;;;4960001;28;20432;-66
2022/04/18 11:06:32;;;;;;;2.03;1.93;;;15.00;52.10;;;;;;4976899;28;20452;-68
2022/04/18 11:09:07;;;;;;;2.63;2.20;;;15.20;51.80;;;;;;4985293;28;20025;-67
2022/04/18 11:11:47;;;;;;;38.83;18.63;;;15.80;54.90;;;;;;4996439;28;20030;-68
2022/04/18 11:14:23;;;;;;;50.00;25.77;;;16.30;51.10;;;;;;4996643;28;20047;-67
2022/04/18 11:16:54;;;;;;;31.80;5.75;;;17.20;52.70;;;;;;4996846;28;20026;-66
2022/04/18 11:19:24;;;;;;;3.65;2.72;;;17.30;52.30;;;;;;4979151;28;20100;-68
2022/04/18 11:21:56;;;;;;;2.60;1.92;;;17.20;51.50;;;;;;4996591;28;20074;-67
2022/04/18 11:24:59;;;;;;;3.33;2.55;;;17.20;51.40;;;;;;4978859;28;20029;-67
2022/04/18 11:27:28;;;;;;;2.22;1.95;;;16.70;50.80;;;;;;4996549;28;20022;-68
2022/04/18 11:30:09;;;;;;;1.85;1.60;;;18.90;48.50;;;;;;4996841;28;20037;-68
2022/04/18 11:32:36;;;;;;;8.43;3.67;;;;;;;;;;4995941;28;20191;-68
2022/04/18 11:35:05;;;;;;;2.50;2.10;;;;;;;;;;4996415;28;20043;-70
2022/04/18 11:37:45;;;;;;;23.85;9.93;;;24.70;42.60;;;;;;4978877;28;20022;-70
2022/04/18 11:40:13;;;;;;;17.80;11.13;;;23.90;41.80;;;;;;4978661;28;20058;-68
2022/04/18 11:42:40;;;;;;;12.38;6.55;;;21.50;42.70;;;;;;4995963;28;20038;-68
2022/04/18 11:45:20;;;;;;;10.00;3.97;;;21.90;42.60;;;;;;4978788;28;20065;-69
2022/04/18 11:47:47;;;;;;;4.57;1.90;;;22.60;42.40;;;;;;4978728;28;20038;-69
2022/04/18 11:50:15;;;;;;;6.82;1.55;;;21.70;44.50;;;;;;4978326;28;20125;-69
2022/04/18 11:52:42;;;;;;;15.57;2.42;;;21.30;44.30;;;;;;4978350;28;20038;-67
2022/04/18 11:55:14;;;;;;;3.03;1.98;;;20.20;43.80;;;;;;4978513;28;20033;-69
2022/04/18 11:57:45;;;;;;;5.00;1.75;;;20.00;45.30;;;;;;4995597;28;20398;-69
2022/04/18 12:08:37;;;;;;;5.20;1.60;;;20.60;44.30;;;;;;4993584;28;20029;-68
2022/04/18 12:11:03;;;;;;;3.28;1.65;;;19.60;44.00;;;;;;4994029;28;20050;-69
2022/04/18 12:13:30;;;;;;;2.88;1.10;;;18.40;44.90;;;;;;4994671;28;20081;-68
2022/04/18 12:15:56;;;;;;;2.70;2.00;;;17.50;45.00;;;;;;4995212;28;20038;-69
2022/04/18 12:18:25;;;;;;;3.60;1.63;;;18.00;46.90;;;;;;4995506;28;20030;-69
2022/04/18 12:20:52;;;;;;;4.32;2.05;;;17.70;46.00;;;;;;4994488;28;20116;-69
2022/04/18 12:23:20;;;;;;;9.15;2.00;;;18.20;46.50;;;;;;4977867;28;20030;-69
2022/04/18 12:25:48;;;;;;;2.90;1.65;;;18.70;48.90;;;;;;4995463;28;20038;-69
2022/04/18 12:28:15;;;;;;;2.63;1.30;;;19.30;47.50;;;;;;4977940;28;20027;-69
2022/04/18 12:30:42;;;;;;;2.00;1.77;;;19.10;45.10;;;;;;4977563;28;20050;-69
2022/04/18 12:33:22;;;;;;;1.33;1.23;;;20.30;44.90;;;;;;4978012;28;20042;-70
2022/04/18 12:35:59;;;;;;;1.42;1.15;;;20.00;43.30;;;;;;4977852;28;20034;-70
2022/04/18 12:38:34;;;;;;;2.28;1.00;;;19.50;41.90;;;;;;4995311;28;20109;-68
2022/04/18 12:41:00;;;;;;;2.75;1.30;;;18.50;42.40;;;;;;4995205;28;20058;-69
2022/04/18 12:43:31;;;;;;;1.10;1.00;;;18.40;44.90;;;;;;4995025;28;20035;-68
2022/04/18 12:46:09;;;;;;;1.65;1.33;;;18.10;46.90;;;;;;4994834;28;20040;-69
2022/04/18 12:48:37;;;;;;;9.70;1.10;;;17.30;47.80;;;;;;4977566;28;20385;-68
2022/04/18 12:51:06;;;;;;;1.15;1.05;;;16.60;47.10;;;;;;4994916;28;20034;-69
2022/04/18 12:53:53;;;;;;;57.20;4.10;;;16.10;47.70;;;;;;4977374;28;20034;-68
2022/04/18 12:56:20;;;;;;;1.92;1.25;;;14.70;48.80;;;;;;4994979;28;20034;-69
2022/04/18 12:58:52;;;;;;;1.45;1.10;;;14.50;48.70;;;;;;4977392;28;20061;-68
2022/04/18 13:01:22;;;;;;;1.50;1.25;;;14.70;48.20;;;;;;4994496;28;20383;-69
2022/04/18 13:03:49;;;;;;;1.30;1.20;;;14.40;49.90;;;;;;4994841;28;20494;-69
2022/04/18 13:06:25;;;;;;;3.53;1.30;;;14.40;50.50;;;;;;4994779;28;20084;-69
2022/04/18 13:08:57;;;;;;;3.45;1.48;;;14.70;52.30;;;;;;4977449;28;20375;-69
2022/04/18 13:11:23;;;;;;;7.38;1.75;;;15.40;54.60;;;;;;4994703;28;20105;-68
2022/04/18 13:13:49;;;;;;;3.92;1.20;;;15.60;51.70;;;;;;4994794;28;20042;-67
2022/04/18 13:16:23;;;;;;;24.65;2.33;;;15.90;52.80;;;;;;4994404;28;20387;-68
2022/04/18 13:19:06;;;;;;;3.80;1.63;;;15.70;55.00;;;;;;4984939;28;20027;-66
2022/04/18 13:21:32;;;;;;;4.20;1.40;;;16.00;54.90;;;;;;4955321;28;20046;-67
2022/04/18 13:24:00;;;;;;;4.20;1.58;;;17.30;51.50;;;;;;4975003;28;20026;-67
2022/04/18 13:26:30;;;;;;;11.98;2.15;;;17.10;52.80;;;;;;4974964;28;20035;-68
2022/04/18 13:28:56;;;;;;;4.70;1.88;;;17.20;50.60;;;;;;4956039;28;20023;-68
2022/04/18 13:31:23;;;;;;;2.30;1.33;;;19.90;48.90;;;;;;4968526;28;20049;-68
2022/04/18 13:33:49;;;;;;;3.35;1.75;;;21.40;46.80;;;;;;4956514;28;20038;-70
2022/04/18 13:36:34;;;;;;;2.08;1.52;;;22.20;44.50;;;;;;4948981;28;20019;-70
2022/04/18 13:39:05;;;;;;;1.60;1.50;;;20.40;45.50;;;;;;4956488;28;20030;-70
2022/04/18 13:41:31;;;;;;;2.17;1.40;;;19.40;45.60;;;;;;4964718;28;20543;-67
2022/04/18 13:43:57;;;;;;;1.85;1.52;;;18.70;47.80;;;;;;4967699;28;20461;-69
2022/04/18 13:46:23;;;;;;;17.35;6.05;;;17.80;48.40;;;;;;4952316;28;20062;-69
2022/04/18 13:48:50;;;;;;;11.32;3.30;;;17.60;48.40;;;;;;4971308;28;20055;-70
2022/04/18 13:51:20;;;;;;;4.72;1.90;;;17.20;50.10;;;;;;4974300;28;20046;-70
2022/04/18 13:53:48;;;;;;;3.67;1.63;;;16.80;51.10;;;;;;4956914;28;20045;-69
2022/04/18 13:56:14;;;;;;;2.63;1.60;;;16.30;49.60;;;;;;4956978;28;20436;-65
2022/04/18 13:58:40;;;;;;;2.10;1.45;;;15.80;50.30;;;;;;4974270;28;20033;-64
2022/04/18 14:01:06;;;;;;;4.05;1.67;;;15.50;50.90;;;;;;4956725;28;20065;-65
2022/04/18 14:03:33;;;;;;;7.68;1.80;;;15.10;54.00;;;;;;4973890;28;20103;-64
2022/04/18 14:06:02;;;;;;;3.95;1.63;;;14.90;52.00;;;;;;4974184;28;20023;-66
2022/04/18 14:08:28;;;;;;;8.88;1.90;;;15.00;54.00;;;;;;4974514;28;20034;-66
2022/04/18 14:10:54;;;;;;;10.25;3.53;;;14.80;54.20;;;;;;4974166;28;20383;-66
2022/04/18 14:13:21;;;;;;;4.68;2.00;;;15.00;54.90;;;;;;4973974;28;20031;-64
2022/04/18 14:21:15;;;;;;;2.75;1.60;;;16.10;53.90;;;;;;4974102;28;20046;-67
2022/04/18 14:23:41;;;;;;;32.42;19.13;;;16.00;51.60;;;;;;4974172;28;20023;-66
2022/04/18 14:26:07;;;;;;;5.85;3.92;;;16.00;51.20;;;;;;4974099;28;20054;-66
2022/04/18 14:28:33;;;;;;;4.72;2.55;;;15.60;50.50;;;;;;4956631;28;20039;-70
2022/04/18 14:30:59;;;;;;;6.25;2.28;;;15.20;50.60;;;;;;4973972;28;20054;-67
2022/04/18 14:33:25;;;;;;;6.65;2.63;;;15.20;53.00;;;;;;4977584;28;20468;-64
2022/04/18 14:35:51;;;;;;;13.57;2.83;;;14.80;52.20;;;;;;4978158;28;20547;-64